Time;durP1;ratioP1;P1;durP2;ratioP2;P2;SDS_P1;SDS_P2;PMS_P1;PMS_P2;Temp;Humidity;BMP_temperature;BMP_pressure;BME280_temperature;BME280_humidity;BME280_pressure;Samples;Min_cycle;Max_cycle;Signal;HPM_P1;HPM_P2
2023/04/24 00:01:02;;;;;;;0.87;0.83;;;;;;;16.31;45.73;98767.06;5056603;28;20076;-64
2023/04/24 00:03:30;;;;;;;0.45;0.45;;;;;;;16.24;45.85;98760.47;5074679;28;20040;-64
2023/04/24 00:06:00;;;;;;;0.40;0.40;;;;;;;16.18;45.86;98760.69;5074366;28;20078;-64
2023/04/24 00:08:31;;;;;;;0.88;0.88;;;;;;;16.12;46.19;98748.06;5056549;28;20045;-64
2023/04/24 00:11:01;;;;;;;0.80;0.80;;;;;;;16.13;46.42;98749.72;5074727;28;20376;-64
2023/04/24 00:13:30;;;;;;;1.30;1.00;;;;;;;16.06;45.92;98742.25;5074209;28;20124;-64
2023/04/24 00:15:59;;;;;;;0.77;0.77;;;;;;;16.06;45.71;98734.53;5074180;28;20067;-64
2023/04/24 00:18:28;;;;;;;1.17;0.80;;;;;;;16.03;46.24;98741.50;5074246;28;20398;-63
2023/04/24 00:20:56;;;;;;;0.50;0.50;;;;;;;16.01;46.64;98739.00;5074053;28;20127;-64
2023/04/24 00:23:25;;;;;;;1.60;1.03;;;;;;;15.94;47.68;98729.00;5073942;28;20132;-64
2023/04/24 00:25:55;;;;;;;1.80;1.23;;;;;;;15.84;47.92;98730.22;5074086;28;20044;-64
2023/04/24 00:28:24;;;;;;;0.75;0.73;;;;;;;15.76;49.60;98727.97;5073957;28;20098;-64
2023/04/24 00:30:53;;;;;;;0.50;0.50;;;;;;;15.62;50.45;98725.03;5073999;28;20037;-64
2023/04/24 00:33:22;;;;;;;0.60;0.60;;;;;;;15.55;50.26;98721.00;5056019;28;20048;-64
2023/04/24 00:35:51;;;;;;;0.68;0.68;;;;;;;15.53;50.37;98720.22;5074151;28;20041;-64
2023/04/24 00:38:20;;;;;;;0.65;0.65;;;;;;;15.49;50.45;98718.66;5056280;28;20517;-64
2023/04/24 00:40:49;;;;;;;1.45;1.33;;;;;;;15.49;49.76;98708.38;5073767;28;20046;-64
2023/04/24 00:43:20;;;;;;;0.43;0.43;;;;;;;15.48;49.79;98696.41;5073670;28;20048;-63
2023/04/24 00:45:48;;;;;;;0.85;0.85;;;;;;;15.51;49.17;98691.16;5055893;28;20045;-64
2023/04/24 00:48:18;;;;;;;1.10;1.00;;;;;;;15.65;47.94;98696.63;5073505;28;20461;-64
2023/04/24 00:50:47;;;;;;;0.57;0.57;;;;;;;15.80;47.00;98693.50;5055900;28;20131;-64
2023/04/24 00:53:16;;;;;;;0.70;0.70;;;;;;;15.95;46.16;98674.91;5073810;28;20053;-65
2023/04/24 00:55:45;;;;;;;6.00;0.68;;;;;;;16.12;45.68;98678.56;5073644;28;20049;-64
2023/04/24 00:58:14;;;;;;;0.93;0.88;;;;;;;16.19;45.24;98687.72;5073693;28;20507;-63
2023/04/24 01:00:46;;;;;;;1.00;0.90;;;;;;;16.26;45.15;98678.84;5073895;28;20040;-64
2023/04/24 01:03:15;;;;;;;1.38;0.80;;;;;;;16.31;45.11;98689.81;5055859;28;20433;-64
2023/04/24 01:05:44;;;;;;;0.55;0.55;;;;;;;16.37;44.98;98681.81;5073496;28;20558;-64
2023/04/24 01:08:14;;;;;;;;;;;;;;;16.35;45.30;98681.06;5073896;28;20041;-64
2023/04/24 01:10:45;;;;;;;1.30;1.17;;;;;;;16.29;45.83;98689.03;5055642;28;20325;-64
2023/04/24 01:13:15;;;;;;;6.03;2.40;;;;;;;16.22;46.61;98679.88;5055065;28;20131;-64
2023/04/24 01:15:47;;;;;;;1.45;1.00;;;;;;;16.16;46.84;98675.78;5073722;28;20059;-65
2023/04/24 01:22:00;;;;;;;0.70;0.70;;;;;;;16.12;48.65;98669.09;5073313;28;20032;-63
2023/04/24 01:24:31;;;;;;;1.05;0.90;;;;;;;16.12;48.43;98673.41;5073325;28;20094;-63
2023/04/24 01:27:00;;;;;;;0.40;0.40;;;;;;;16.15;48.00;98668.97;5073324;28;20103;-63
2023/04/24 01:29:30;;;;;;;1.05;0.82;;;;;;;16.19;47.88;98680.00;5073322;28;20051;-63
2023/04/24 01:31:59;;;;;;;0.77;0.77;;;;;;;16.15;47.72;98658.66;5055424;28;20044;-64
2023/04/24 01:34:28;;;;;;;0.55;0.55;;;;;;;16.17;48.06;98650.91;5055315;28;20041;-65
2023/04/24 01:36:57;;;;;;;1.15;1.05;;;;;;;16.24;47.66;98658.31;5055355;28;20045;-64
2023/04/24 01:39:28;;;;;;;0.70;0.70;;;;;;;16.26;47.95;98646.22;5073184;28;20041;-64
2023/04/24 01:41:58;;;;;;;0.90;0.90;;;;;;;16.28;47.65;98648.72;5055380;28;20040;-65
2023/04/24 01:44:28;;;;;;;1.40;1.17;;;;;;;16.32;47.20;98650.25;5073130;28;20129;-65
2023/04/24 01:46:57;;;;;;;1.13;1.05;;;;;;;16.34;47.54;98648.50;5073688;28;20052;-65
2023/04/24 01:49:26;;;;;;;1.13;1.08;;;;;;;16.31;46.97;98648.59;5073046;28;20068;-64
2023/04/24 01:51:55;;;;;;;1.00;1.00;;;;;;;16.24;47.28;98636.88;5073020;28;20041;-64
2023/04/24 01:54:24;;;;;;;1.63;0.90;;;;;;;16.25;47.10;98635.97;5072926;28;20045;-65
2023/04/24 01:56:52;;;;;;;2.50;1.73;;;;;;;16.24;47.23;98632.56;5072987;28;20044;-64
2023/04/24 01:59:26;;;;;;;1.58;0.95;;;;;;;16.23;47.33;98628.31;5055149;28;20037;-64
2023/04/24 02:01:55;;;;;;;0.60;0.60;;;;;;;16.13;48.43;98623.59;5072953;28;20135;-65
2023/04/24 02:04:24;;;;;;;2.03;1.20;;;;;;;16.00;48.68;98629.22;5072960;28;20067;-64
2023/04/24 02:06:53;;;;;;;1.43;1.03;;;;;;;15.87;49.31;98637.47;5055008;28;20506;-64
2023/04/24 02:09:21;;;;;;;2.92;1.27;;;;;;;15.81;49.90;98638.53;5072805;28;20032;-63
2023/04/24 02:11:52;;;;;;;0.50;0.50;;;;;;;15.73;50.12;98640.59;5073307;28;20127;-64
2023/04/24 02:14:21;;;;;;;0.77;0.70;;;;;;;15.72;50.39;98636.34;5073154;28;20098;-64
2023/04/24 02:16:51;;;;;;;0.50;0.50;;;;;;;15.70;50.90;98622.69;5073032;28;20426;-66
2023/04/24 02:19:22;;;;;;;0.60;0.60;;;;;;;15.65;51.17;98631.47;5072887;28;20062;-63
2023/04/24 02:21:51;;;;;;;1.38;1.00;;;;;;;15.57;51.40;98624.06;5055458;28;20047;-64
2023/04/24 02:24:20;;;;;;;0.63;0.63;;;;;;;15.54;51.80;98626.75;5054809;28;20065;-64
2023/04/24 02:26:49;;;;;;;1.07;0.83;;;;;;;15.56;51.93;98632.69;5057607;28;20040;-64
2023/04/24 02:29:18;;;;;;;1.33;0.93;;;;;;;15.60;52.32;98631.66;5076266;28;20041;-64
2023/04/24 02:31:47;;;;;;;0.50;0.50;;;;;;;15.61;52.42;98628.19;5076225;28;20049;-64
2023/04/24 02:34:17;;;;;;;1.37;1.27;;;;;;;15.59;52.33;98614.56;5058278;28;20051;-64
2023/04/24 02:36:46;;;;;;;1.60;1.33;;;;;;;15.58;52.23;98620.59;5076115;28;20056;-64
2023/04/24 02:39:17;;;;;;;1.00;0.90;;;;;;;15.57;52.24;98611.22;5076063;28;20048;-64
2023/04/24 02:41:46;;;;;;;3.55;1.55;;;;;;;15.60;52.49;98611.06;5076153;28;20548;-64
2023/04/24 02:44:18;;;;;;;0.90;0.90;;;;;;;15.60;52.93;98613.66;5077046;28;20068;-64
2023/04/24 02:46:47;;;;;;;0.98;0.93;;;;;;;15.62;53.15;98606.72;5076212;28;20072;-64
2023/04/24 02:49:19;;;;;;;0.60;0.60;;;;;;;15.57;52.97;98603.50;5075701;28;20118;-64
2023/04/24 02:51:48;;;;;;;0.60;0.60;;;;;;;15.62;53.58;98609.28;5075897;28;20513;-64
2023/04/24 02:54:16;;;;;;;2.60;1.33;;;;;;;15.61;53.47;98610.19;5075777;28;20040;-64
2023/04/24 02:56:45;;;;;;;1.70;1.03;;;;;;;15.60;53.71;98608.50;5076260;28;20395;-64
2023/04/24 02:59:14;;;;;;;1.60;1.02;;;;;;;15.57;53.76;98608.66;5058202;28;20566;-64
2023/04/24 03:01:43;;;;;;;0.40;0.40;;;;;;;15.57;54.26;98608.66;5076039;28;20032;-64
2023/04/24 03:04:12;;;;;;;0.70;0.63;;;;;;;15.55;53.93;98607.84;5057687;28;20041;-64
2023/04/24 03:06:43;;;;;;;0.52;0.52;;;;;;;15.56;53.84;98600.97;5057845;28;20052;-64
2023/04/24 03:09:12;;;;;;;0.95;0.70;;;;;;;15.56;53.66;98591.53;5057723;28;20406;-64
2023/04/24 03:11:41;;;;;;;0.93;0.75;;;;;;;15.55;53.97;98594.97;5075469;28;20491;-64
2023/04/24 03:14:10;;;;;;;0.70;0.60;;;;;;;15.54;53.74;98583.03;5075797;28;20044;-64
2023/04/24 03:16:39;;;;;;;1.03;0.90;;;;;;;15.57;53.87;98577.78;5075692;28;20041;-64
2023/04/24 03:19:08;;;;;;;1.27;1.10;;;;;;;15.59;53.96;98575.13;5075570;28;20312;-64
2023/04/24 03:21:47;;;;;;;0.82;0.82;;;;;;;15.58;53.77;98574.28;5075307;28;20493;-64
2023/04/24 03:24:16;;;;;;;1.27;0.88;;;;;;;15.61;53.15;98563.91;5075507;28;20075;-63
2023/04/24 03:26:45;;;;;;;0.80;0.80;;;;;;;15.67;53.12;98568.78;5057365;28;20048;-64
2023/04/24 03:29:30;;;;;;;1.40;1.08;;;;;;;15.76;52.94;98555.59;5075138;28;20048;-64
2023/04/24 03:31:59;;;;;;;2.40;2.15;;;;;;;15.80;52.92;98553.72;5075049;28;20072;-63
2023/04/24 03:34:28;;;;;;;0.60;0.60;;;;;;;15.83;52.26;98564.75;5057303;28;20044;-64
2023/04/24 03:37:00;;;;;;;0.73;0.70;;;;;;;15.85;52.32;98552.66;5056797;28;20049;-64
2023/04/24 03:39:29;;;;;;;0.95;0.95;;;;;;;15.88;52.20;98547.34;5057641;28;20052;-64
2023/04/24 03:41:58;;;;;;;0.70;0.70;;;;;;;15.96;51.68;98555.63;5075200;28;20040;-64
2023/04/24 03:44:41;;;;;;;1.27;1.10;;;;;;;16.00;50.90;98554.56;5075082;28;20055;-64
2023/04/24 03:47:10;;;;;;;0.68;0.68;;;;;;;15.96;51.00;98545.31;5057313;28;20040;-64
2023/04/24 03:49:39;;;;;;;0.77;0.70;;;;;;;16.06;51.21;98562.06;5057336;28;20083;-64
2023/04/24 03:52:11;;;;;;;0.90;0.80;;;;;;;16.00;50.77;98554.56;5057144;28;20514;-64
2023/04/24 03:54:40;;;;;;;0.77;0.77;;;;;;;15.99;51.36;98560.66;5057092;28;20053;-64
2023/04/24 03:57:09;;;;;;;0.83;0.83;;;;;;;15.95;51.13;98559.09;5057123;28;20037;-65
2023/04/24 03:59:43;;;;;;;0.80;0.80;;;;;;;15.90;51.30;98545.56;5056809;28;20402;-64
2023/04/24 04:02:18;;;;;;;1.17;1.08;;;;;;;15.88;51.85;98542.19;5074462;28;20053;-64
2023/04/24 04:04:48;;;;;;;0.68;0.68;;;;;;;15.86;51.56;98556.88;5074094;28;20056;-65
2023/04/24 04:07:18;;;;;;;1.17;0.90;;;;;;;15.85;52.22;98555.22;5056560;28;20044;-65
2023/04/24 04:09:47;;;;;;;1.40;1.30;;;;;;;15.84;52.13;98558.69;5056856;28;20040;-65
2023/04/24 04:12:17;;;;;;;1.67;1.52;;;;;;;15.82;52.15;98563.06;5056774;28;20074;-64
2023/04/24 04:14:46;;;;;;;0.82;0.80;;;;;;;15.81;51.92;98550.25;5074204;28;20051;-65
2023/04/24 04:17:15;;;;;;;2.33;1.80;;;;;;;15.81;51.91;98556.22;5056424;28;20090;-65
2023/04/24 04:19:44;;;;;;;1.30;1.20;;;;;;;15.75;51.58;98543.59;5056330;28;20051;-65
2023/04/24 04:22:13;;;;;;;0.73;0.73;;;;;;;15.76;51.46;98547.88;5056284;28;20131;-64
2023/04/24 04:24:47;;;;;;;4.80;1.23;;;;;;;15.78;51.40;98546.06;5074175;28;20117;-64
2023/04/24 04:27:18;;;;;;;0.85;0.85;;;;;;;15.78;51.50;98551.22;5056597;28;20048;-64
2023/04/24 04:29:59;;;;;;;0.95;0.90;;;;;;;15.80;51.94;98559.69;5073789;28;20036;-65
2023/04/24 04:32:28;;;;;;;1.02;0.80;;;;;;;15.80;51.75;98559.69;5056417;28;20376;-65
2023/04/24 04:34:57;;;;;;;1.13;0.88;;;;;;;15.73;51.68;98542.84;5056360;28;20037;-64
2023/04/24 04:37:28;;;;;;;2.50;1.75;;;;;;;15.83;51.13;98553.59;5073873;28;20052;-65
2023/04/24 04:40:11;;;;;;;0.93;0.88;;;;;;;15.83;51.10;98554.44;5055998;28;20124;-65
2023/04/24 04:42:52;;;;;;;0.70;0.70;;;;;;;15.85;50.72;98557.78;5056274;28;20048;-65
2023/04/24 04:45:24;;;;;;;1.48;1.30;;;;;;;15.83;50.72;98548.47;5073654;28;20048;-64
2023/04/24 04:48:04;;;;;;;0.88;0.82;;;;;;;15.81;50.50;98558.78;5073216;28;20102;-65
2023/04/24 04:50:33;;;;;;;0.50;0.50;;;;;;;15.76;50.18;98563.31;5055580;28;20135;-65
2023/04/24 04:53:07;;;;;;;1.45;1.15;;;;;;;15.78;50.44;98556.34;5073989;28;20531;-64
2023/04/24 04:55:40;;;;;;;0.43;0.43;;;;;;;15.81;50.27;98566.50;5074234;28;20048;-64
2023/04/24 04:58:16;;;;;;;1.33;1.23;;;;;;;15.77;50.45;98546.09;5073720;28;20052;-65
2023/04/24 05:00:46;;;;;;;5.50;2.42;;;;;;;15.79;50.38;98552.88;5074100;28;20441;-64
2023/04/24 05:03:22;;;;;;;1.10;0.98;;;;;;;15.78;50.46;98548.63;5055639;28;20044;-65
2023/04/24 05:05:59;;;;;;;1.38;1.27;;;;;;;15.80;50.19;98554.56;5073542;28;20041;-65
2023/04/24 05:08:29;;;;;;;2.63;1.75;;;;;;;15.77;50.65;98554.66;5055698;28;20053;-65
2023/04/24 05:11:01;;;;;;;0.60;0.60;;;;;;;15.79;51.39;98549.47;5073746;28;20131;-65
2023/04/24 05:13:32;;;;;;;0.50;0.50;;;;;;;15.76;52.50;98547.88;5073537;28;20144;-65
2023/04/24 05:16:18;;;;;;;0.70;0.70;;;;;;;15.74;53.06;98548.81;5073408;28;20097;-65
2023/04/24 05:18:48;;;;;;;1.13;0.98;;;;;;;15.72;53.75;98546.28;5055550;28;20068;-65
2023/04/24 05:21:22;;;;;;;1.75;0.75;;;;;;;15.69;54.38;98551.56;5055556;28;20075;-66
2023/04/24 05:23:53;;;;;;;1.05;0.95;;;;;;;15.61;55.57;98548.47;5073822;28;20476;-66
2023/04/24 05:26:37;;;;;;;0.55;0.55;;;;;;;15.59;56.64;98550.25;5073370;28;20049;-66
2023/04/24 05:29:08;;;;;;;1.17;1.08;;;;;;;15.59;58.30;98549.41;5073850;28;20059;-66
2023/04/24 05:31:37;;;;;;;0.70;0.70;;;;;;;15.54;58.45;98552.19;5055872;28;20491;-67
2023/04/24 05:34:06;;;;;;;3.63;1.60;;;;;;;15.52;58.86;98550.56;5055317;28;20044;-66
2023/04/24 05:36:40;;;;;;;1.08;0.98;;;;;;;15.50;58.69;98550.59;5073763;28;20394;-66
2023/04/24 05:39:09;;;;;;;1.33;1.05;;;;;;;15.52;58.95;98556.53;5055324;28;20040;-66
2023/04/24 05:41:40;;;;;;;1.20;1.10;;;;;;;15.46;59.51;98549.03;5073628;28;20094;-67
2023/04/24 05:44:08;;;;;;;1.05;0.93;;;;;;;15.42;60.07;98548.31;5073122;28;20299;-67
2023/04/24 05:46:37;;;;;;;2.30;1.15;;;;;;;15.41;60.47;98546.63;5055228;28;20044;-66
2023/04/24 05:49:06;;;;;;;0.73;0.73;;;;;;;15.42;60.27;98547.47;5072964;28;20135;-67
2023/04/24 05:51:36;;;;;;;1.25;1.15;;;;;;;15.42;61.06;98539.75;5055158;28;20055;-67
2023/04/24 05:54:05;;;;;;;;;;;;;;;15.45;61.19;98547.41;5055757;28;20048;-67
2023/04/24 05:56:34;;;;;;;1.58;1.42;;;;;;;15.49;61.36;98546.38;5070289;28;19947;-67
2023/04/24 05:59:07;;;;;;;1.83;1.23;;;;;;;15.52;61.17;98543.69;5075719;28;20090;-67
2023/04/24 06:01:37;;;;;;;5.82;0.77;;;;;;;15.47;61.36;98535.31;5097436;28;20044;-66
2023/04/24 06:04:15;;;;;;;1.48;1.38;;;;;;;15.50;59.01;98540.31;5096877;28;20044;-65
2023/04/24 06:06:45;;;;;;;1.48;1.38;;;;;;;15.53;58.00;98537.63;5096821;28;20042;-65
2023/04/24 06:09:13;;;;;;;0.57;0.57;;;;;;;15.66;58.02;98535.41;5096827;28;20078;-66
2023/04/24 06:11:42;;;;;;;2.28;1.63;;;;;;;15.79;59.29;98537.44;5097075;28;20281;-65
2023/04/24 06:14:15;;;;;;;1.15;0.95;;;;;;;15.85;60.45;98526.91;5097172;28;20044;-65
2023/04/24 06:16:55;;;;;;;1.27;1.00;;;;;;;15.90;60.48;98534.44;5096765;28;20040;-65
2023/04/24 06:19:37;;;;;;;1.52;0.93;;;;;;;15.98;60.71;98533.22;5096704;28;20485;-64
2023/04/24 06:22:06;;;;;;;1.33;1.02;;;;;;;16.08;61.06;98533.69;5096861;28;20394;-66
2023/04/24 06:24:38;;;;;;;1.88;1.08;;;;;;;16.16;60.41;98535.94;5078938;28;20493;-66
2023/04/24 06:27:07;;;;;;;2.58;1.63;;;;;;;16.20;59.87;98532.31;5078792;28;20040;-66
2023/04/24 06:29:37;;;;;;;;;;;;;;;16.24;59.90;98533.91;5096899;28;20067;-64
2023/04/24 06:32:07;;;;;;;0.70;0.70;;;;;;;16.28;59.55;98535.44;5097646;28;19982;-64
2023/04/24 06:34:37;;;;;;;0.40;0.40;;;;;;;16.33;59.51;98529.19;5096644;28;20401;-64
2023/04/24 06:37:06;;;;;;;0.80;0.80;;;;;;;16.29;59.22;98531.97;5078362;28;20070;-65
2023/04/24 06:39:35;;;;;;;0.50;0.50;;;;;;;16.26;57.22;98521.78;5096478;28;20040;-64
2023/04/24 06:42:04;;;;;;;1.27;1.10;;;;;;;16.22;55.68;98525.41;5096188;28;20130;-64
2023/04/24 06:44:40;;;;;;;0.60;0.60;;;;;;;16.23;54.51;98521.91;5096215;28;20386;-64
2023/04/24 06:47:13;;;;;;;0.93;0.75;;;;;;;16.28;54.00;98531.13;5096067;28;20062;-64
2023/04/24 06:49:43;;;;;;;1.15;1.05;;;;;;;16.33;54.36;98523.19;5078212;28;20501;-64
2023/04/24 06:52:12;;;;;;;1.33;1.23;;;;;;;16.32;53.94;98527.50;5096029;28;20039;-64
2023/04/24 06:54:42;;;;;;;0.50;0.50;;;;;;;16.32;54.06;98531.81;5096006;28;20508;-65
2023/04/24 06:57:11;;;;;;;1.17;1.05;;;;;;;16.31;53.77;98525.00;5096243;28;20439;-64
2023/04/24 06:59:40;;;;;;;0.85;0.82;;;;;;;16.29;53.79;98521.66;5095865;28;20037;-63
2023/04/24 07:02:10;;;;;;;0.75;0.68;;;;;;;16.26;53.78;98526.94;5096052;28;20390;-63
2023/04/24 07:04:39;;;;;;;2.45;1.77;;;;;;;16.20;53.65;98527.19;5096234;28;20048;-65
2023/04/24 07:07:12;;;;;;;1.33;1.00;;;;;;;16.19;53.59;98525.53;5095934;28;20076;-65
2023/04/24 07:09:42;;;;;;;1.27;1.15;;;;;;;16.23;53.62;98527.06;5077952;28;20401;-65
2023/04/24 07:12:12;;;;;;;1.00;0.90;;;;;;;16.25;53.13;98531.25;5094943;28;20077;-66
2023/04/24 07:14:41;;;;;;;0.40;0.40;;;;;;;16.23;52.79;98529.63;5095898;28;20402;-65
2023/04/24 07:17:13;;;;;;;1.13;1.02;;;;;;;16.19;53.04;98530.66;5095828;28;20436;-66
2023/04/24 07:19:42;;;;;;;0.73;0.73;;;;;;;16.20;52.91;98529.75;5095454;28;20047;-65
2023/04/24 07:22:16;;;;;;;4.03;1.20;;;;;;;16.19;53.06;98530.66;5095865;28;20051;-66
2023/04/24 07:24:45;;;;;;;0.82;0.82;;;;;;;16.21;53.46;98528.88;5095771;28;20131;-65
2023/04/24 07:27:14;;;;;;;0.80;0.77;;;;;;;16.20;53.04;98532.31;5095078;28;20055;-69
2023/04/24 07:29:43;;;;;;;0.65;0.60;;;;;;;16.14;53.22;98524.88;5095377;28;20070;-65
2023/04/24 07:32:14;;;;;;;0.93;0.77;;;;;;;16.17;53.35;98524.75;5094520;28;20055;-65
2023/04/24 07:34:43;;;;;;;0.60;0.60;;;;;;;16.15;53.94;98531.72;5095221;28;20105;-66
2023/04/24 07:37:12;;;;;;;1.53;0.90;;;;;;;16.10;53.76;98532.72;5094795;28;20048;-65
2023/04/24 07:39:41;;;;;;;0.68;0.68;;;;;;;16.06;54.03;98531.19;5095762;28;20048;-64
2023/04/24 07:42:10;;;;;;;0.63;0.63;;;;;;;16.04;53.84;98530.41;5095253;28;20036;-66
2023/04/24 07:44:39;;;;;;;1.20;0.95;;;;;;;16.04;53.82;98535.56;5094807;28;20051;-65
2023/04/24 07:47:07;;;;;;;1.35;1.17;;;;;;;16.05;53.72;98539.78;5094888;28;20079;-65
2023/04/24 07:49:38;;;;;;;10.95;1.98;;;;;;;16.10;53.91;98535.28;5094594;28;20512;-65
2023/04/24 07:52:08;;;;;;;0.90;0.90;;;;;;;16.11;53.92;98541.28;5095196;28;20052;-65
2023/04/24 07:54:37;;;;;;;0.60;0.60;;;;;;;16.06;54.03;98531.19;5094779;28;20459;-65
2023/04/24 07:57:07;;;;;;;6.72;1.95;;;;;;;16.03;53.94;98536.44;5094586;28;20101;-64
2023/04/24 07:59:37;;;;;;;0.55;0.55;;;;;;;16.08;53.98;98539.66;5095018;28;20397;-65
2023/04/24 08:02:06;;;;;;;1.33;1.10;;;;;;;16.08;54.48;98544.81;5095099;28;20489;-65
2023/04/24 08:04:35;;;;;;;4.22;1.00;;;;;;;16.16;53.98;98535.94;5094583;28;20079;-64
2023/04/24 08:07:05;;;;;;;2.03;1.58;;;;;;;16.21;54.49;98534.00;5094485;28;20079;-64
2023/04/24 08:09:34;;;;;;;1.15;0.95;;;;;;;16.26;54.46;98539.81;5094939;28;20379;-65
2023/04/24 08:12:03;;;;;;;1.35;0.95;;;;;;;16.22;54.25;98535.69;5095056;28;20119;-65
2023/04/24 08:14:32;;;;;;;1.95;1.40;;;;;;;16.22;54.43;98543.44;5094599;28;20127;-64
2023/04/24 08:17:02;;;;;;;1.75;1.35;;;;;;;16.26;54.61;98538.06;5095126;28;20113;-65
2023/04/24 08:19:31;;;;;;;0.52;0.52;;;;;;;16.28;54.33;98540.56;5094511;28;20127;-65
2023/04/24 08:22:00;;;;;;;2.00;0.90;;;;;;;16.33;54.10;98536.91;5094339;28;20040;-64
2023/04/24 08:24:30;;;;;;;0.60;0.60;;;;;;;16.43;54.79;98539.94;5094188;28;20284;-65
2023/04/24 08:26:59;;;;;;;0.45;0.45;;;;;;;16.43;54.90;98539.94;5094276;28;20486;-65
2023/04/24 08:29:28;;;;;;;0.57;0.57;;;;;;;16.42;55.23;98538.25;5094499;28;20047;-65
2023/04/24 08:31:58;;;;;;;1.20;1.08;;;;;;;16.44;55.62;98546.75;5094419;28;20494;-64
2023/04/24 08:34:27;;;;;;;1.13;0.90;;;;;;;16.43;56.18;98539.94;5094174;28;20063;-65
2023/04/24 08:36:56;;;;;;;0.80;0.77;;;;;;;16.35;56.40;98547.13;5094129;28;20044;-64
2023/04/24 08:39:24;;;;;;;2.17;1.70;;;;;;;16.36;57.29;98553.97;5094106;28;20071;-65
2023/04/24 08:41:56;;;;;;;0.50;0.50;;;;;;;16.35;57.10;98552.28;5094026;28;20040;-65
2023/04/24 08:44:25;;;;;;;1.48;1.20;;;;;;;16.36;57.08;98556.56;5094664;28;20039;-65
2023/04/24 08:46:54;;;;;;;0.73;0.73;;;;;;;16.34;57.06;98556.59;5094210;28;20063;-64
2023/04/24 08:49:26;;;;;;;8.93;0.95;;;;;;;16.41;57.30;98557.19;5093745;28;20289;-65
2023/04/24 08:51:57;;;;;;;0.47;0.47;;;;;;;16.43;57.25;98547.66;5094077;28;20105;-64
2023/04/24 08:54:26;;;;;;;2.13;1.75;;;;;;;16.46;57.05;98550.94;5094517;28;20406;-64
2023/04/24 08:57:03;;;;;;;0.70;0.70;;;;;;;16.48;57.06;98553.47;5093959;28;20166;-65
2023/04/24 08:59:33;;;;;;;0.98;0.70;;;;;;;16.61;56.99;98552.06;5093810;28;20074;-64
2023/04/24 09:02:04;;;;;;;0.40;0.40;;;;;;;16.61;57.08;98549.47;5093706;28;20048;-64
2023/04/24 09:04:36;;;;;;;0.82;0.80;;;;;;;16.58;56.43;98549.63;5094017;28;20105;-64
2023/04/24 09:07:07;;;;;;;1.02;0.70;;;;;;;16.60;56.53;98547.81;5093796;28;20044;-65
2023/04/24 09:09:39;;;;;;;9.32;0.98;;;;;;;16.64;56.07;98539.88;5094121;28;20394;-65
2023/04/24 09:12:10;;;;;;;0.70;0.70;;;;;;;16.74;56.14;98542.91;5094040;28;20063;-65
2023/04/24 09:14:42;;;;;;;1.75;1.65;;;;;;;16.77;56.06;98542.78;5093987;28;20140;-65
2023/04/24 09:17:11;;;;;;;0.80;0.80;;;;;;;16.74;55.42;98545.47;5093285;28;20398;-65
2023/04/24 09:19:40;;;;;;;0.50;0.50;;;;;;;16.72;55.24;98542.13;5093426;28;20402;-65
2023/04/24 09:22:11;;;;;;;0.80;0.80;;;;;;;16.72;55.82;98547.28;5093514;28;20075;-65
2023/04/24 09:24:40;;;;;;;1.98;1.73;;;;;;;16.70;56.51;98549.06;5093398;28;20075;-65
2023/04/24 09:27:13;;;;;;;1.77;1.35;;;;;;;16.73;56.86;98544.63;5093459;28;20033;-64
2023/04/24 09:29:55;;;;;;;0.80;0.80;;;;;;;16.85;56.34;98538.09;5093472;28;20099;-65
2023/04/24 09:32:26;;;;;;;1.13;0.93;;;;;;;17.00;55.63;98537.44;5093533;28;20044;-65
2023/04/24 09:35:11;;;;;;;0.63;0.63;;;;;;;17.00;55.40;98532.28;5094976;28;20070;-64
2023/04/24 09:37:42;;;;;;;1.10;1.00;;;;;;;17.11;55.66;98536.91;5096065;28;20040;-64
2023/04/24 09:40:14;;;;;;;1.38;1.25;;;;;;;17.17;54.94;98537.50;5097773;28;20040;-64
2023/04/24 09:42:47;;;;;;;0.75;0.75;;;;;;;17.36;54.81;98538.31;5097445;28;20072;-64
2023/04/24 09:45:16;;;;;;;1.48;1.17;;;;;;;17.52;54.07;98537.63;5097370;28;20063;-65
2023/04/24 09:47:45;;;;;;;0.80;0.80;;;;;;;17.68;53.84;98541.19;5097189;28;20050;-65
2023/04/24 09:50:17;;;;;;;1.20;1.02;;;;;;;17.82;53.43;98533.59;5097327;28;20041;-64
2023/04/24 09:52:57;;;;;;;1.17;1.00;;;;;;;18.00;52.80;98540.44;5097463;28;20044;-65
2023/04/24 09:55:26;;;;;;;0.40;0.40;;;;;;;18.05;52.31;98535.88;5097241;28;20042;-64
2023/04/24 09:57:57;;;;;;;1.20;1.10;;;;;;;18.04;52.16;98540.22;5097338;28;20386;-65
2023/04/24 10:00:27;;;;;;;1.13;0.90;;;;;;;17.99;53.00;98546.53;5097020;28;20059;-65
2023/04/24 10:02:57;;;;;;;1.08;0.80;;;;;;;17.84;53.62;98536.94;5097007;28;20051;-64
2023/04/24 10:05:31;;;;;;;2.15;0.90;;;;;;;17.82;53.66;98543.94;5097278;28;20040;-65
2023/04/24 10:08:03;;;;;;;0.60;0.50;;;;;;;17.66;54.09;98540.41;5096782;28;20394;-65
2023/04/24 10:10:33;;;;;;;1.00;0.90;;;;;;;17.46;54.76;98545.63;5096636;28;20048;-64
2023/04/24 10:13:06;;;;;;;1.52;1.17;;;;;;;17.35;55.69;98543.53;5096822;28;20054;-65
2023/04/24 10:15:36;;;;;;;2.47;2.28;;;;;;;17.15;55.62;98536.75;5097371;28;20055;-65
2023/04/24 10:18:06;;;;;;;0.85;0.75;;;;;;;17.14;55.70;98534.22;5096745;28;20486;-65
2023/04/24 10:20:36;;;;;;;;;;;;;;;17.10;56.05;98536.09;5097317;28;20048;-65
2023/04/24 10:23:06;;;;;;;1.45;1.25;;;;;;;16.98;56.06;98531.50;5096636;28;19927;-65
2023/04/24 10:25:37;;;;;;;0.82;0.82;;;;;;;16.88;56.34;98535.41;5096514;28;20567;-65
2023/04/24 10:28:07;;;;;;;1.00;0.90;;;;;;;16.79;56.91;98540.13;5096405;28;20055;-64
2023/04/24 10:30:44;;;;;;;1.58;1.30;;;;;;;16.73;57.59;98536.06;5096791;28;20051;-64
2023/04/24 10:33:13;;;;;;;1.25;0.88;;;;;;;16.65;57.93;98540.72;5096182;28;20048;-64
2023/04/24 10:35:49;;;;;;;1.17;0.80;;;;;;;16.61;58.13;98534.03;5096344;28;20080;-64
2023/04/24 10:38:24;;;;;;;2.40;2.05;;;;;;;16.63;58.13;98533.03;5096659;28;20389;-64
2023/04/24 10:40:58;;;;;;;1.60;1.40;;;;;;;16.59;57.78;98540.97;5096291;28;20055;-64
2023/04/24 10:43:29;;;;;;;1.08;0.98;;;;;;;16.56;57.77;98535.94;5096175;28;20050;-64
2023/04/24 10:46:05;;;;;;;1.83;1.33;;;;;;;16.56;57.68;98534.22;5095241;28;20040;-65
2023/04/24 10:48:35;;;;;;;2.05;0.77;;;;;;;16.61;57.73;98540.00;5095753;28;20093;-66
2023/04/24 10:51:03;;;;;;;;;;;;;;;16.64;57.68;98529.59;5096833;28;20442;-65
2023/04/24 10:53:32;;;;;;;1.02;0.93;;;;;;;16.66;57.78;98527.78;5096053;28;19920;-65
2023/04/24 10:56:05;;;;;;;1.60;1.40;;;;;;;16.64;57.57;98528.75;5095971;28;20497;-66
2023/04/24 10:58:43;;;;;;;1.38;1.27;;;;;;;16.51;57.47;98512.09;5096056;28;20105;-64
2023/04/24 11:01:26;;;;;;;1.17;1.08;;;;;;;16.57;57.95;98524.75;5095907;28;20097;-65
2023/04/24 11:04:00;;;;;;;0.70;0.70;;;;;;;16.54;57.93;98519.72;5095967;28;20055;-65
2023/04/24 11:06:33;;;;;;;0.80;0.80;;;;;;;16.54;57.87;98522.31;5095912;28;20048;-65
2023/04/24 11:09:07;;;;;;;1.40;1.30;;;;;;;16.54;57.79;98528.31;5095893;28;20059;-65
2023/04/24 11:11:39;;;;;;;0.63;0.63;;;;;;;16.52;57.93;98526.69;5095797;28;20048;-64
2023/04/24 11:14:10;;;;;;;0.77;0.77;;;;;;;16.53;58.14;98525.81;5095945;28;20448;-65
2023/04/24 11:16:45;;;;;;;0.57;0.57;;;;;;;16.59;58.16;98520.38;5095643;28;20058;-64
2023/04/24 11:19:28;;;;;;;0.95;0.93;;;;;;;16.61;58.21;98518.56;5095989;28;20067;-65
2023/04/24 11:22:01;;;;;;;0.82;0.77;;;;;;;16.60;58.34;98522.06;5095711;28;20081;-65
2023/04/24 11:24:33;;;;;;;2.05;1.80;;;;;;;16.58;58.76;98523.88;5095849;28;20190;-65
2023/04/24 11:27:13;;;;;;;1.85;1.42;;;;;;;16.60;58.90;98520.28;5095371;28;20048;-65
2023/04/24 11:29:47;;;;;;;2.00;1.05;;;;;;;16.58;58.81;98522.09;5095353;28;20043;-65
2023/04/24 11:32:30;;;;;;;1.50;1.17;;;;;;;16.57;58.56;98530.75;5095481;28;20403;-65
2023/04/24 11:35:01;;;;;;;5.65;5.03;;;;;;;16.59;58.57;98528.09;5095251;28;20044;-64
2023/04/24 11:37:34;;;;;;;3.85;1.20;;;;;;;16.60;59.12;98516.91;5095266;28;20126;-65
2023/04/24 11:40:06;;;;;;;9.00;5.30;;;;;;;16.64;59.02;98523.59;5095136;28;20112;-66
2023/04/24 11:42:38;;;;;;;1.67;1.48;;;;;;;16.60;59.55;98522.06;5095155;28;20127;-63
2023/04/24 11:45:14;;;;;;;2.05;1.70;;;;;;;16.56;60.22;98528.22;5095011;28;20482;-65
2023/04/24 11:47:44;;;;;;;0.70;0.70;;;;;;;16.51;60.77;98522.41;5095087;28;20051;-65
2023/04/24 11:50:16;;;;;;;1.45;1.20;;;;;;;16.44;61.25;98523.56;5094636;28;20056;-65
2023/04/24 11:52:50;;;;;;;0.60;0.60;;;;;;;16.45;62.07;98527.84;5094982;28;20517;-65
2023/04/24 11:55:29;;;;;;;2.40;1.08;;;;;;;16.47;61.36;98520.88;5094901;28;20044;-65